SAS540 EGCC-EKCH
Flight info
| Callsign | SAS540 |
|---|---|
| Flight time | 1h 35m |
| Altitude | 33000 |
| Route | DESIG L603 LAMIX UT29 LIBSO UL975 ERDOW DCT ROPAL DCT LESRA DCT TESPI |
| Aircraft | MD82/M-SDFGIRWY/S |
Departure
| Time | 2026-04-25 12:22 |
|---|---|
| Airport | Manchester Airport (EGCC) |
Arrival
| Time | 2026-04-25 13:58 |
|---|---|
| Airport | Copenhagen Kastrup Airport (EKCH) |
| Time | Latitude | Longitude | Altitude | Speed | Heading |
|---|---|---|---|---|---|
| 2026-04-25 11:59 | 53.36843 | -2.28902 | 256 ft | 0 kts | 135° |
| 2026-04-25 12:05 | 53.36847 | -2.28909 | 256 ft | 2 kts | 135° |
| 2026-04-25 12:05 | 53.36861 | -2.28928 | 256 ft | 4 kts | 168° |
| 2026-04-25 12:06 | 53.36877 | -2.28921 | 256 ft | 3 kts | 224° |
| 2026-04-25 12:06 | 53.36896 | -2.28891 | 256 ft | 3 kts | 225° |
| 2026-04-25 12:06 | 53.36899 | -2.28886 | 256 ft | 3 kts | 225° |
| 2026-04-25 12:12 | 53.36895 | -2.28892 | 256 ft | 3 kts | 225° |
| 2026-04-25 12:12 | 53.36876 | -2.28924 | 256 ft | 4 kts | 225° |
| 2026-04-25 12:13 | 53.36841 | -2.28981 | 256 ft | 9 kts | 225° |
| 2026-04-25 12:13 | 53.36827 | -2.29005 | 256 ft | 5 kts | 225° |
| 2026-04-25 12:13 | 53.36781 | -2.29061 | 256 ft | 9 kts | 191° |
| 2026-04-25 12:13 | 53.36729 | -2.29017 | 256 ft | 9 kts | 138° |
| 2026-04-25 12:14 | 53.36682 | -2.28940 | 256 ft | 10 kts | 135° |
| 2026-04-25 12:14 | 53.36623 | -2.28876 | 256 ft | 11 kts | 139° |
| 2026-04-25 12:14 | 53.36581 | -2.28771 | 256 ft | 12 kts | 109° |
| 2026-04-25 12:14 | 53.36540 | -2.28651 | 256 ft | 12 kts | 134° |
| 2026-04-25 12:15 | 53.36479 | -2.28547 | 256 ft | 13 kts | 135° |
| 2026-04-25 12:15 | 53.36414 | -2.28438 | 256 ft | 14 kts | 135° |
| 2026-04-25 12:15 | 53.36346 | -2.28323 | 256 ft | 14 kts | 135° |
| 2026-04-25 12:15 | 53.36275 | -2.28204 | 256 ft | 15 kts | 135° |
| 2026-04-25 12:16 | 53.36203 | -2.28082 | 256 ft | 15 kts | 135° |
| 2026-04-25 12:16 | 53.36126 | -2.27956 | 256 ft | 16 kts | 135° |
| 2026-04-25 12:16 | 53.36044 | -2.27835 | 256 ft | 16 kts | 158° |
| 2026-04-25 12:16 | 53.35936 | -2.27846 | 256 ft | 16 kts | 186° |
| 2026-04-25 12:17 | 53.35842 | -2.27799 | 256 ft | 12 kts | 133° |
| 2026-04-25 12:17 | 53.35798 | -2.27707 | 256 ft | 10 kts | 130° |
| 2026-04-25 12:17 | 53.35739 | -2.27659 | 256 ft | 7 kts | 171° |
| 2026-04-25 12:17 | 53.35698 | -2.27626 | 256 ft | 9 kts | 145° |
| 2026-04-25 12:18 | 53.35646 | -2.27562 | 257 ft | 10 kts | 144° |
| 2026-04-25 12:18 | 53.35615 | -2.27525 | 256 ft | 0 kts | 144° |
| 2026-04-25 12:18 | 53.35604 | -2.27508 | 256 ft | 0 kts | 138° |
| 2026-04-25 12:19 | 53.35599 | -2.27501 | 256 ft | 2 kts | 138° |
| 2026-04-25 12:19 | 53.35582 | -2.27475 | 256 ft | 3 kts | 137° |
| 2026-04-25 12:19 | 53.35561 | -2.27446 | 256 ft | 5 kts | 142° |
| 2026-04-25 12:20 | 53.35526 | -2.27399 | 255 ft | 8 kts | 141° |
| 2026-04-25 12:20 | 53.35482 | -2.27340 | 256 ft | 11 kts | 140° |
| 2026-04-25 12:20 | 53.35397 | -2.27224 | 253 ft | 21 kts | 146° |
| 2026-04-25 12:20 | 53.35229 | -2.27226 | 246 ft | 28 kts | 191° |
| 2026-04-25 12:21 | 53.35038 | -2.27292 | 242 ft | 28 kts | 200° |
| 2026-04-25 12:21 | 53.34898 | -2.27553 | 234 ft | 34 kts | 231° |
| 2026-04-25 12:21 | 53.34733 | -2.27889 | 231 ft | 45 kts | 231° |
| 2026-04-25 12:21 | 53.34413 | -2.28556 | 222 ft | 105 kts | 231° |
| 2026-04-25 12:22 | 53.33829 | -2.29756 | 218 ft | 160 kts | 231° |
| 2026-04-25 12:22 | 53.33104 | -2.31255 | 814 ft | 167 kts | 231° |
| 2026-04-25 12:22 | 53.32359 | -2.32784 | 1649 ft | 169 kts | 231° |
| 2026-04-25 12:22 | 53.31771 | -2.34455 | 2385 ft | 175 kts | 257° |
| 2026-04-25 12:23 | 53.31627 | -2.36580 | 2917 ft | 192 kts | 273° |
| 2026-04-25 12:23 | 53.31830 | -2.38663 | 3710 ft | 189 kts | 290° |
| 2026-04-25 12:23 | 53.32470 | -2.40537 | 4534 ft | 188 kts | 311° |
| 2026-04-25 12:23 | 53.33604 | -2.41906 | 4826 ft | 217 kts | 340° |
| 2026-04-25 12:24 | 53.35060 | -2.42571 | 5711 ft | 207 kts | 348° |
| 2026-04-25 12:24 | 53.36442 | -2.43027 | 6646 ft | 206 kts | 349° |
| 2026-04-25 12:24 | 53.37913 | -2.43462 | 7080 ft | 223 kts | 349° |
| 2026-04-25 12:24 | 53.39481 | -2.43984 | 7455 ft | 242 kts | 347° |
| 2026-04-25 12:25 | 53.41182 | -2.44694 | 7858 ft | 261 kts | 343° |
| 2026-04-25 12:25 | 53.42985 | -2.45534 | 8325 ft | 276 kts | 347° |
| 2026-04-25 12:25 | 53.44922 | -2.45559 | 8880 ft | 285 kts | 15° |
| 2026-04-25 12:25 | 53.46650 | -2.43945 | 9622 ft | 289 kts | 45° |
| 2026-04-25 12:26 | 53.47743 | -2.41117 | 10322 ft | 295 kts | 71° |
| 2026-04-25 12:26 | 53.48167 | -2.37642 | 10581 ft | 315 kts | 83° |
| 2026-04-25 12:26 | 53.48414 | -2.33880 | 10784 ft | 333 kts | 83° |
| 2026-04-25 12:26 | 53.48665 | -2.29964 | 11007 ft | 350 kts | 83° |
| 2026-04-25 12:27 | 53.48941 | -2.25856 | 11465 ft | 357 kts | 83° |
| 2026-04-25 12:27 | 53.49254 | -2.21707 | 12102 ft | 359 kts | 82° |
| 2026-04-25 12:27 | 53.49609 | -2.17535 | 12733 ft | 362 kts | 84° |
| 2026-04-25 12:27 | 53.49634 | -2.13295 | 13313 ft | 366 kts | 93° |
| 2026-04-25 12:28 | 53.49463 | -2.09015 | 13906 ft | 369 kts | 94° |
| 2026-04-25 12:28 | 53.49259 | -2.04699 | 14457 ft | 373 kts | 95° |
| 2026-04-25 12:28 | 53.49048 | -2.00342 | 15040 ft | 375 kts | 95° |
| 2026-04-25 12:28 | 53.48838 | -1.95968 | 15622 ft | 378 kts | 95° |
| 2026-04-25 12:29 | 53.48637 | -1.91610 | 16196 ft | 380 kts | 94° |
| 2026-04-25 12:29 | 53.48446 | -1.87166 | 16753 ft | 383 kts | 94° |
| 2026-04-25 12:29 | 53.48320 | -1.84033 | 17133 ft | 385 kts | 94° |
| 2026-04-25 12:29 | 53.48143 | -1.79523 | 17669 ft | 388 kts | 94° |
| 2026-04-25 12:30 | 53.47965 | -1.74982 | 18224 ft | 391 kts | 94° |
| 2026-04-25 12:30 | 53.47788 | -1.70422 | 18770 ft | 393 kts | 94° |
| 2026-04-25 12:30 | 53.47610 | -1.65827 | 19224 ft | 396 kts | 94° |
| 2026-04-25 12:30 | 53.47428 | -1.61188 | 19699 ft | 399 kts | 94° |
| 2026-04-25 12:31 | 53.47036 | -1.56638 | 20168 ft | 401 kts | 104° |
| 2026-04-25 12:31 | 53.46276 | -1.52114 | 20638 ft | 405 kts | 108° |
| 2026-04-25 12:31 | 53.45418 | -1.47601 | 21094 ft | 408 kts | 109° |
| 2026-04-25 12:31 | 53.44543 | -1.43072 | 21587 ft | 410 kts | 109° |
| 2026-04-25 12:32 | 53.43665 | -1.38504 | 22064 ft | 413 kts | 108° |
| 2026-04-25 12:32 | 53.42798 | -1.33891 | 22492 ft | 417 kts | 108° |
| 2026-04-25 12:32 | 53.41944 | -1.29233 | 22959 ft | 420 kts | 108° |
| 2026-04-25 12:32 | 53.41090 | -1.24526 | 23402 ft | 423 kts | 108° |
| 2026-04-25 12:33 | 53.40244 | -1.19861 | 23825 ft | 426 kts | 108° |
| 2026-04-25 12:33 | 53.39380 | -1.15097 | 24200 ft | 429 kts | 108° |
| 2026-04-25 12:33 | 53.38514 | -1.10301 | 24587 ft | 431 kts | 108° |
| 2026-04-25 12:33 | 53.37644 | -1.05492 | 24992 ft | 433 kts | 108° |
| 2026-04-25 12:34 | 53.36761 | -1.00657 | 25341 ft | 436 kts | 108° |
| 2026-04-25 12:34 | 53.35867 | -0.95800 | 25695 ft | 438 kts | 108° |
| 2026-04-25 12:34 | 53.34967 | -0.90915 | 26080 ft | 440 kts | 108° |
| 2026-04-25 12:34 | 53.34371 | -0.87673 | 26333 ft | 442 kts | 108° |
| 2026-04-25 12:35 | 53.33337 | -0.81064 | 26763 ft | 447 kts | 96° |
| 2026-04-25 12:35 | 53.33442 | -0.75877 | 27127 ft | 449 kts | 78° |
| 2026-04-25 12:35 | 53.34477 | -0.70954 | 27501 ft | 451 kts | 60° |
| 2026-04-25 12:35 | 53.36193 | -0.66542 | 27842 ft | 453 kts | 55° |
| 2026-04-25 12:36 | 53.37884 | -0.62065 | 28178 ft | 457 kts | 61° |
| 2026-04-25 12:36 | 53.39262 | -0.57271 | 28526 ft | 459 kts | 67° |
| 2026-04-25 12:36 | 53.40420 | -0.52279 | 28917 ft | 460 kts | 70° |
| 2026-04-25 12:36 | 53.41466 | -0.47193 | 29302 ft | 462 kts | 71° |
| 2026-04-25 12:37 | 53.42443 | -0.42142 | 29822 ft | 460 kts | 72° |
| 2026-04-25 12:37 | 53.43411 | -0.37050 | 30401 ft | 457 kts | 72° |
| 2026-04-25 12:37 | 53.44269 | -0.32551 | 30811 ft | 455 kts | 72° |
| 2026-04-25 12:37 | 53.45189 | -0.27788 | 31179 ft | 454 kts | 72° |
| 2026-04-25 12:38 | 53.46175 | -0.22762 | 31529 ft | 454 kts | 71° |
| 2026-04-25 12:38 | 53.47177 | -0.17728 | 31860 ft | 455 kts | 71° |
| 2026-04-25 12:38 | 53.48173 | -0.12688 | 32187 ft | 455 kts | 71° |
| 2026-04-25 12:38 | 53.49153 | -0.07646 | 32568 ft | 454 kts | 71° |
| 2026-04-25 12:39 | 53.50128 | -0.02619 | 32911 ft | 453 kts | 71° |
| 2026-04-25 12:39 | 53.51100 | 0.02358 | 33081 ft | 456 kts | 71° |
| 2026-04-25 12:39 | 53.52131 | 0.07408 | 33158 ft | 456 kts | 65° |
| 2026-04-25 12:39 | 53.53719 | 0.11960 | 33204 ft | 451 kts | 50° |
| 2026-04-25 12:40 | 53.55747 | 0.15959 | 33213 ft | 448 kts | 46° |
| 2026-04-25 12:40 | 53.60000 | 0.23593 | 33223 ft | 446 kts | 45° |
| 2026-04-25 12:41 | 53.64234 | 0.31204 | 33228 ft | 446 kts | 46° |
| 2026-04-25 12:41 | 53.68382 | 0.38884 | 33226 ft | 446 kts | 46° |
| 2026-04-25 12:42 | 53.72527 | 0.46693 | 33225 ft | 446 kts | 46° |
| 2026-04-25 12:42 | 53.76666 | 0.54510 | 33233 ft | 446 kts | 46° |
| 2026-04-25 12:43 | 53.80813 | 0.62330 | 33224 ft | 447 kts | 46° |
| 2026-04-25 12:43 | 53.86978 | 0.74059 | 33224 ft | 446 kts | 46° |
| 2026-04-25 12:44 | 53.91095 | 0.81895 | 33232 ft | 444 kts | 46° |
| 2026-04-25 12:45 | 53.96628 | 0.94525 | 33227 ft | 446 kts | 54° |
| 2026-04-25 12:45 | 54.01836 | 1.07546 | 33228 ft | 446 kts | 53° |
| 2026-04-25 12:46 | 54.05385 | 1.16188 | 33229 ft | 446 kts | 52° |
| 2026-04-25 12:46 | 54.08955 | 1.24821 | 33225 ft | 446 kts | 52° |
| 2026-04-25 12:47 | 54.12519 | 1.33468 | 33225 ft | 446 kts | 52° |
| 2026-04-25 12:47 | 54.16048 | 1.42074 | 33227 ft | 445 kts | 52° |
| 2026-04-25 12:48 | 54.19559 | 1.50745 | 33227 ft | 443 kts | 52° |
| 2026-04-25 12:48 | 54.23044 | 1.59423 | 33229 ft | 443 kts | 52° |
| 2026-04-25 12:49 | 54.26513 | 1.68044 | 33233 ft | 443 kts | 52° |
| 2026-04-25 12:49 | 54.30008 | 1.76720 | 33230 ft | 443 kts | 52° |
| 2026-04-25 12:50 | 54.33506 | 1.85414 | 33225 ft | 443 kts | 52° |
| 2026-04-25 12:50 | 54.36900 | 1.93872 | 33228 ft | 443 kts | 52° |
| 2026-04-25 12:51 | 54.40362 | 2.02521 | 33228 ft | 441 kts | 52° |
| 2026-04-25 12:51 | 54.43796 | 2.11234 | 33227 ft | 440 kts | 52° |
| 2026-04-25 12:52 | 54.47211 | 2.19942 | 33226 ft | 440 kts | 52° |
| 2026-04-25 12:52 | 54.50640 | 2.28662 | 33225 ft | 440 kts | 52° |
| 2026-04-25 12:53 | 54.54072 | 2.37383 | 33225 ft | 440 kts | 51° |
| 2026-04-25 12:53 | 54.57477 | 2.46054 | 33226 ft | 440 kts | 51° |
| 2026-04-25 12:54 | 54.60901 | 2.54789 | 33217 ft | 439 kts | 51° |
| 2026-04-25 12:54 | 54.64302 | 2.63503 | 33215 ft | 437 kts | 51° |
| 2026-04-25 12:55 | 54.67089 | 2.70757 | 33215 ft | 436 kts | 52° |
| 2026-04-25 12:55 | 54.70981 | 2.80913 | 33213 ft | 436 kts | 51° |
| 2026-04-25 12:56 | 54.74340 | 2.89657 | 33214 ft | 436 kts | 51° |
| 2026-04-25 12:56 | 54.77695 | 2.98390 | 33211 ft | 436 kts | 51° |
| 2026-04-25 12:57 | 54.81046 | 3.07129 | 33213 ft | 434 kts | 52° |
| 2026-04-25 12:57 | 54.84351 | 3.15771 | 33211 ft | 432 kts | 52° |
| 2026-04-25 12:58 | 54.87657 | 3.24455 | 33209 ft | 430 kts | 52° |
| 2026-04-25 12:58 | 54.90920 | 3.33172 | 33207 ft | 430 kts | 52° |
| 2026-04-25 12:59 | 54.94176 | 3.41880 | 33202 ft | 430 kts | 52° |
| 2026-04-25 12:59 | 54.97439 | 3.50586 | 33201 ft | 429 kts | 52° |
| 2026-04-25 13:00 | 54.99600 | 3.56350 | 33204 ft | 429 kts | 52° |
| 2026-04-25 13:00 | 55.03894 | 3.67823 | 33200 ft | 428 kts | 52° |
| 2026-04-25 13:01 | 55.07049 | 3.76274 | 33197 ft | 427 kts | 52° |
| 2026-04-25 13:01 | 55.10286 | 3.84942 | 33189 ft | 425 kts | 51° |
| 2026-04-25 13:02 | 55.13516 | 3.93501 | 33188 ft | 426 kts | 53° |
| 2026-04-25 13:02 | 55.15993 | 4.03035 | 33185 ft | 435 kts | 64° |
| 2026-04-25 13:03 | 55.18151 | 4.12927 | 33177 ft | 435 kts | 63° |
| 2026-04-25 13:03 | 55.20403 | 4.22765 | 33181 ft | 435 kts | 62° |
| 2026-04-25 13:04 | 55.22707 | 4.32451 | 33184 ft | 433 kts | 61° |
| 2026-04-25 13:04 | 55.25036 | 4.42165 | 33177 ft | 433 kts | 61° |
| 2026-04-25 13:05 | 55.27360 | 4.51912 | 33173 ft | 434 kts | 61° |
| 2026-04-25 13:05 | 55.29677 | 4.61695 | 33170 ft | 434 kts | 61° |
| 2026-04-25 13:06 | 55.31933 | 4.71482 | 33165 ft | 436 kts | 62° |
| 2026-04-25 13:06 | 55.34182 | 4.81350 | 33157 ft | 436 kts | 61° |
| 2026-04-25 13:07 | 55.36473 | 4.91204 | 33160 ft | 436 kts | 60° |
| 2026-04-25 13:07 | 55.38714 | 5.01123 | 33147 ft | 441 kts | 67° |
| 2026-04-25 13:08 | 55.39998 | 5.11701 | 33149 ft | 448 kts | 73° |
| 2026-04-25 13:08 | 55.41086 | 5.22489 | 33141 ft | 448 kts | 72° |
| 2026-04-25 13:09 | 55.42245 | 5.33238 | 33139 ft | 447 kts | 72° |
| 2026-04-25 13:09 | 55.43470 | 5.43974 | 33137 ft | 447 kts | 71° |
| 2026-04-25 13:10 | 55.44700 | 5.54642 | 33130 ft | 448 kts | 71° |
| 2026-04-25 13:10 | 55.45930 | 5.65409 | 33126 ft | 448 kts | 71° |
| 2026-04-25 13:11 | 55.47098 | 5.75975 | 33124 ft | 432 kts | 71° |
| 2026-04-25 13:11 | 55.48215 | 5.86296 | 33126 ft | 432 kts | 71° |
| 2026-04-25 13:12 | 55.49371 | 5.96810 | 33120 ft | 448 kts | 71° |
| 2026-04-25 13:12 | 55.50339 | 6.05875 | 33115 ft | 455 kts | 71° |
| 2026-04-25 13:13 | 55.51689 | 6.18691 | 33107 ft | 453 kts | 71° |
| 2026-04-25 13:13 | 55.52850 | 6.29604 | 33103 ft | 452 kts | 71° |
| 2026-04-25 13:14 | 55.54021 | 6.40510 | 33097 ft | 453 kts | 71° |
| 2026-04-25 13:14 | 55.55181 | 6.51484 | 33092 ft | 456 kts | 71° |
| 2026-04-25 13:15 | 55.56250 | 6.62188 | 33085 ft | 457 kts | 72° |
| 2026-04-25 13:15 | 55.57342 | 6.73179 | 33084 ft | 458 kts | 71° |
| 2026-04-25 13:16 | 55.58459 | 6.84277 | 33077 ft | 459 kts | 71° |
| 2026-04-25 13:16 | 55.59585 | 6.95404 | 33075 ft | 460 kts | 71° |
| 2026-04-25 13:17 | 55.60713 | 7.06559 | 33069 ft | 462 kts | 71° |
| 2026-04-25 13:17 | 55.61842 | 7.17755 | 33066 ft | 463 kts | 71° |
| 2026-04-25 13:18 | 55.62917 | 7.28946 | 33058 ft | 465 kts | 72° |
| 2026-04-25 13:18 | 55.63968 | 7.40256 | 33053 ft | 466 kts | 72° |
| 2026-04-25 13:19 | 55.65031 | 7.51589 | 33049 ft | 468 kts | 71° |
| 2026-04-25 13:19 | 55.65745 | 7.59122 | 33045 ft | 468 kts | 71° |
| 2026-04-25 13:20 | 55.67187 | 7.74289 | 33036 ft | 470 kts | 71° |
| 2026-04-25 13:20 | 55.68269 | 7.85715 | 33037 ft | 471 kts | 71° |
| 2026-04-25 13:21 | 55.69334 | 7.97215 | 33025 ft | 473 kts | 72° |
| 2026-04-25 13:21 | 55.70340 | 8.08763 | 33025 ft | 475 kts | 72° |
| 2026-04-25 13:22 | 55.71350 | 8.20351 | 33023 ft | 476 kts | 72° |
| 2026-04-25 13:23 | 55.72885 | 8.37685 | 33019 ft | 476 kts | 72° |
| 2026-04-25 13:23 | 55.73886 | 8.48961 | 33017 ft | 477 kts | 72° |
| 2026-04-25 13:24 | 55.74917 | 8.60582 | 33012 ft | 477 kts | 72° |
| 2026-04-25 13:24 | 55.75916 | 8.72274 | 32981 ft | 480 kts | 72° |
| 2026-04-25 13:25 | 55.76858 | 8.83962 | 32979 ft | 482 kts | 72° |
| 2026-04-25 13:25 | 55.77814 | 8.95743 | 32968 ft | 483 kts | 72° |
| 2026-04-25 13:26 | 55.78789 | 9.07567 | 32972 ft | 484 kts | 72° |
| 2026-04-25 13:26 | 55.79770 | 9.19422 | 32974 ft | 486 kts | 72° |
| 2026-04-25 13:27 | 55.80745 | 9.31233 | 32972 ft | 487 kts | 72° |
| 2026-04-25 13:27 | 55.81701 | 9.43154 | 32961 ft | 487 kts | 73° |
| 2026-04-25 13:28 | 55.82594 | 9.55108 | 32935 ft | 488 kts | 73° |
| 2026-04-25 13:28 | 55.83488 | 9.67022 | 32929 ft | 490 kts | 73° |
| 2026-04-25 13:29 | 55.84404 | 9.79041 | 32918 ft | 491 kts | 73° |
| 2026-04-25 13:29 | 55.85327 | 9.91092 | 32908 ft | 492 kts | 73° |
| 2026-04-25 13:30 | 55.86712 | 10.09248 | 32899 ft | 494 kts | 74° |
| 2026-04-25 13:30 | 55.87053 | 10.15382 | 32523 ft | 506 kts | 77° |
| 2026-04-25 13:31 | 55.87713 | 10.27796 | 31198 ft | 505 kts | 74° |
| 2026-04-25 13:31 | 55.88198 | 10.33990 | 30297 ft | 505 kts | 72° |
| 2026-04-25 13:31 | 55.88752 | 10.40172 | 29288 ft | 506 kts | 72° |
| 2026-04-25 13:31 | 55.89334 | 10.46342 | 28325 ft | 505 kts | 72° |
| 2026-04-25 13:32 | 55.89770 | 10.52572 | 27411 ft | 513 kts | 83° |
| 2026-04-25 13:32 | 55.89420 | 10.58956 | 26593 ft | 522 kts | 97° |
| 2026-04-25 13:32 | 55.88586 | 10.65246 | 25795 ft | 521 kts | 101° |
| 2026-04-25 13:32 | 55.87676 | 10.71477 | 25001 ft | 519 kts | 101° |
| 2026-04-25 13:33 | 55.86807 | 10.77616 | 24220 ft | 517 kts | 100° |
| 2026-04-25 13:33 | 55.85978 | 10.83830 | 23449 ft | 515 kts | 99° |
| 2026-04-25 13:33 | 55.85199 | 10.89987 | 22680 ft | 502 kts | 98° |
| 2026-04-25 13:33 | 55.84686 | 10.94038 | 22240 ft | 490 kts | 100° |
| 2026-04-25 13:34 | 55.83626 | 11.01658 | 21292 ft | 471 kts | 101° |
| 2026-04-25 13:34 | 55.82814 | 11.07250 | 20389 ft | 463 kts | 101° |
| 2026-04-25 13:34 | 55.82002 | 11.12758 | 19476 ft | 457 kts | 101° |
| 2026-04-25 13:34 | 55.81196 | 11.18187 | 18590 ft | 451 kts | 101° |
| 2026-04-25 13:35 | 55.80399 | 11.23531 | 17708 ft | 443 kts | 102° |
| 2026-04-25 13:35 | 55.79631 | 11.28699 | 16883 ft | 433 kts | 102° |
| 2026-04-25 13:35 | 55.78882 | 11.33725 | 16600 ft | 407 kts | 102° |
| 2026-04-25 13:35 | 55.78178 | 11.38422 | 16499 ft | 380 kts | 102° |
| 2026-04-25 13:36 | 55.77523 | 11.42819 | 16404 ft | 357 kts | 99° |
| 2026-04-25 13:36 | 55.77133 | 11.47139 | 16179 ft | 362 kts | 88° |
| 2026-04-25 13:36 | 55.77032 | 11.51764 | 15694 ft | 387 kts | 85° |
| 2026-04-25 13:36 | 55.77006 | 11.56533 | 15138 ft | 382 kts | 85° |
| 2026-04-25 13:37 | 55.76980 | 11.61203 | 14551 ft | 374 kts | 85° |
| 2026-04-25 13:37 | 55.76941 | 11.65719 | 14023 ft | 366 kts | 85° |
| 2026-04-25 13:37 | 55.76887 | 11.70202 | 13482 ft | 361 kts | 86° |
| 2026-04-25 13:37 | 55.76826 | 11.74621 | 12929 ft | 355 kts | 84° |
| 2026-04-25 13:38 | 55.77064 | 11.78890 | 12562 ft | 340 kts | 72° |
| 2026-04-25 13:38 | 55.77549 | 11.83007 | 12378 ft | 342 kts | 69° |
| 2026-04-25 13:38 | 55.78086 | 11.87124 | 12200 ft | 343 kts | 69° |
| 2026-04-25 13:38 | 55.78630 | 11.91245 | 11990 ft | 342 kts | 69° |
| 2026-04-25 13:39 | 55.79166 | 11.95340 | 11784 ft | 340 kts | 70° |
| 2026-04-25 13:39 | 55.79607 | 11.98766 | 11601 ft | 338 kts | 70° |
| 2026-04-25 13:39 | 55.80123 | 12.02851 | 11379 ft | 338 kts | 70° |
| 2026-04-25 13:39 | 55.80623 | 12.06906 | 11159 ft | 336 kts | 71° |
| 2026-04-25 13:40 | 55.80949 | 12.09592 | 11013 ft | 335 kts | 71° |
| 2026-04-25 13:40 | 55.81597 | 12.15009 | 10749 ft | 334 kts | 71° |
| 2026-04-25 13:40 | 55.82061 | 12.18922 | 10516 ft | 329 kts | 71° |
| 2026-04-25 13:40 | 55.82522 | 12.22848 | 10341 ft | 321 kts | 71° |
| 2026-04-25 13:41 | 55.82977 | 12.26720 | 10070 ft | 320 kts | 71° |
| 2026-04-25 13:41 | 55.83426 | 12.30501 | 9812 ft | 318 kts | 71° |
| 2026-04-25 13:41 | 55.83690 | 12.34425 | 9313 ft | 326 kts | 91° |
| 2026-04-25 13:41 | 55.83105 | 12.38299 | 8966 ft | 323 kts | 118° |
| 2026-04-25 13:42 | 55.81934 | 12.41642 | 8677 ft | 316 kts | 126° |
| 2026-04-25 13:42 | 55.80688 | 12.44806 | 8407 ft | 309 kts | 127° |
| 2026-04-25 13:42 | 55.79806 | 12.47036 | 8218 ft | 308 kts | 127° |
| 2026-04-25 13:42 | 55.78573 | 12.50146 | 7990 ft | 308 kts | 127° |
| 2026-04-25 13:43 | 55.77342 | 12.53257 | 7768 ft | 308 kts | 126° |
| 2026-04-25 13:43 | 55.76125 | 12.56384 | 7539 ft | 307 kts | 126° |
| 2026-04-25 13:43 | 55.74929 | 12.59509 | 7321 ft | 305 kts | 125° |
| 2026-04-25 13:43 | 55.73769 | 12.62593 | 7101 ft | 304 kts | 124° |
| 2026-04-25 13:44 | 55.72613 | 12.65710 | 6884 ft | 302 kts | 124° |
| 2026-04-25 13:44 | 55.71469 | 12.68825 | 6647 ft | 301 kts | 124° |
| 2026-04-25 13:44 | 55.70349 | 12.71882 | 6430 ft | 298 kts | 123° |
| 2026-04-25 13:44 | 55.69231 | 12.74943 | 6206 ft | 295 kts | 123° |
| 2026-04-25 13:45 | 55.68115 | 12.77983 | 5964 ft | 292 kts | 124° |
| 2026-04-25 13:45 | 55.67011 | 12.80981 | 5756 ft | 290 kts | 124° |
| 2026-04-25 13:45 | 55.65910 | 12.83973 | 5535 ft | 291 kts | 124° |
| 2026-04-25 13:45 | 55.64821 | 12.86939 | 5328 ft | 291 kts | 123° |
| 2026-04-25 13:46 | 55.63718 | 12.89933 | 5180 ft | 289 kts | 124° |
| 2026-04-25 13:46 | 55.62702 | 12.92673 | 5091 ft | 286 kts | 124° |
| 2026-04-25 13:46 | 55.61609 | 12.95552 | 4960 ft | 276 kts | 125° |
| 2026-04-25 13:46 | 55.60549 | 12.98316 | 4781 ft | 267 kts | 125° |
| 2026-04-25 13:47 | 55.59519 | 13.00991 | 4550 ft | 260 kts | 125° |
| 2026-04-25 13:47 | 55.58523 | 13.03576 | 4399 ft | 249 kts | 125° |
| 2026-04-25 13:47 | 55.57561 | 13.06053 | 4256 ft | 240 kts | 126° |
| 2026-04-25 13:47 | 55.56626 | 13.08447 | 4033 ft | 234 kts | 126° |
| 2026-04-25 13:48 | 55.55720 | 13.10780 | 3878 ft | 226 kts | 126° |
| 2026-04-25 13:48 | 55.54780 | 13.12974 | 3594 ft | 227 kts | 143° |
| 2026-04-25 13:48 | 55.53876 | 13.13880 | 3388 ft | 217 kts | 176° |
| 2026-04-25 13:49 | 55.53009 | 13.13919 | 3246 ft | 199 kts | 207° |
| 2026-04-25 13:49 | 55.52030 | 13.12611 | 3054 ft | 168 kts | 248° |
| 2026-04-25 13:49 | 55.51435 | 13.10863 | 2903 ft | 165 kts | 248° |
| 2026-04-25 13:50 | 55.50837 | 13.09166 | 2853 ft | 162 kts | 248° |
| 2026-04-25 13:50 | 55.50268 | 13.07489 | 2834 ft | 161 kts | 250° |
| 2026-04-25 13:50 | 55.49721 | 13.05760 | 2832 ft | 162 kts | 250° |
| 2026-04-25 13:50 | 55.49186 | 13.04020 | 2808 ft | 161 kts | 251° |
| 2026-04-25 13:51 | 55.48668 | 13.02279 | 2805 ft | 158 kts | 257° |
| 2026-04-25 13:51 | 55.48738 | 13.00524 | 2817 ft | 149 kts | 310° |
| 2026-04-25 13:51 | 55.49521 | 12.99365 | 3163 ft | 147 kts | 308° |
| 2026-04-25 13:51 | 55.50098 | 12.97762 | 3069 ft | 160 kts | 296° |
| 2026-04-25 13:52 | 55.50585 | 12.96049 | 2993 ft | 151 kts | 297° |
| 2026-04-25 13:52 | 55.51107 | 12.94460 | 2990 ft | 149 kts | 300° |
| 2026-04-25 13:52 | 55.51653 | 12.92900 | 3000 ft | 150 kts | 301° |
| 2026-04-25 13:52 | 55.52203 | 12.91366 | 2999 ft | 150 kts | 301° |
| 2026-04-25 13:53 | 55.52773 | 12.89820 | 3001 ft | 150 kts | 302° |
| 2026-04-25 13:53 | 55.53350 | 12.88286 | 2999 ft | 150 kts | 302° |
| 2026-04-25 13:53 | 55.53948 | 12.86718 | 2775 ft | 157 kts | 302° |
| 2026-04-25 13:53 | 55.54544 | 12.85116 | 2536 ft | 156 kts | 301° |
| 2026-04-25 13:54 | 55.55138 | 12.83525 | 2330 ft | 153 kts | 301° |
| 2026-04-25 13:54 | 55.55712 | 12.81986 | 2107 ft | 151 kts | 301° |
| 2026-04-25 13:54 | 55.56287 | 12.80423 | 1879 ft | 149 kts | 301° |
| 2026-04-25 13:54 | 55.56620 | 12.79530 | 1776 ft | 147 kts | 301° |
| 2026-04-25 13:55 | 55.56833 | 12.78961 | 1704 ft | 146 kts | 301° |
| 2026-04-25 13:55 | 55.57301 | 12.77701 | 1546 ft | 138 kts | 301° |
| 2026-04-25 13:55 | 55.57749 | 12.76495 | 1353 ft | 131 kts | 301° |
| 2026-04-25 13:55 | 55.58238 | 12.75186 | 1162 ft | 124 kts | 301° |
| 2026-04-25 13:56 | 55.58701 | 12.73931 | 1007 ft | 124 kts | 300° |
| 2026-04-25 13:56 | 55.59159 | 12.72720 | 897 ft | 109 kts | 300° |
| 2026-04-25 13:56 | 55.59572 | 12.71606 | 792 ft | 109 kts | 298° |
| 2026-04-25 13:56 | 55.59985 | 12.70457 | 571 ft | 114 kts | 299° |
| 2026-04-25 13:57 | 55.60427 | 12.69314 | 366 ft | 113 kts | 300° |
| 2026-04-25 13:57 | 55.60571 | 12.68938 | 332 ft | 114 kts | 298° |
| 2026-04-25 13:57 | 55.61258 | 12.67056 | 105 ft | 104 kts | 298° |
| 2026-04-25 13:57 | 55.61638 | 12.66028 | 30 ft | 92 kts | 297° |
| 2026-04-25 13:58 | 55.61926 | 12.65239 | 24 ft | 55 kts | 302° |
| 2026-04-25 13:58 | 55.62062 | 12.64874 | 25 ft | 25 kts | 303° |
| 2026-04-25 13:58 | 55.62128 | 12.64723 | 25 ft | 10 kts | 334° |
| 2026-04-25 13:58 | 55.62166 | 12.64743 | 25 ft | 5 kts | 27° |
| 2026-04-25 13:59 | 55.62207 | 12.64775 | 25 ft | 7 kts | 20° |
| 2026-04-25 13:59 | 55.62263 | 12.64790 | 25 ft | 9 kts | 355° |
| 2026-04-25 13:59 | 55.62329 | 12.64782 | 24 ft | 10 kts | 359° |
| 2026-04-25 13:59 | 55.62393 | 12.64752 | 26 ft | 9 kts | 315° |
| 2026-04-25 14:00 | 55.62406 | 12.64723 | 24 ft | 9 kts | 309° |
| 2026-04-25 14:00 | 55.62464 | 12.64570 | 24 ft | 9 kts | 303° |
| 2026-04-25 14:00 | 55.62499 | 12.64473 | 24 ft | 10 kts | 302° |
| 2026-04-25 14:00 | 55.62536 | 12.64373 | 24 ft | 10 kts | 304° |
| 2026-04-25 14:01 | 55.62575 | 12.64279 | 24 ft | 9 kts | 325° |
| 2026-04-25 14:01 | 55.62637 | 12.64292 | 24 ft | 11 kts | 22° |
| 2026-04-25 14:01 | 55.62690 | 12.64328 | 24 ft | 4 kts | 20° |
| 2026-04-25 14:01 | 55.62706 | 12.64340 | 27 ft | 2 kts | 26° |
| 2026-04-25 14:02 | 55.62721 | 12.64364 | 24 ft | 1 kts | 68° |
| 2026-04-25 14:02 | 55.62720 | 12.64370 | 24 ft | 1 kts | 90° |
| 2026-04-25 14:02 | 55.62719 | 12.64401 | 24 ft | 4 kts | 96° |
| 2026-04-25 14:02 | 55.62718 | 12.64418 | 24 ft | 5 kts | 101° |
| 2026-04-25 14:03 | 55.62715 | 12.64444 | 24 ft | 0 kts | 101° |
| 2026-04-25 14:03 | 55.62714 | 12.64446 | 24 ft | 0 kts | 101° |